sensor_id;sensor_type;location;lat;lon;timestamp;P1;durP1;ratioP1;P2;durP2;ratioP2
46675;SDS011;32412;51.478;5.694;2022-11-21T00:02:00;9.23;;;2.35;;
46675;SDS011;32412;51.478;5.694;2022-11-21T00:04:26;9.43;;;1.70;;
46675;SDS011;32412;51.478;5.694;2022-11-21T00:06:51;4.00;;;1.90;;
46675;SDS011;32412;51.478;5.694;2022-11-21T00:09:17;5.70;;;2.08;;
46675;SDS011;32412;51.478;5.694;2022-11-21T00:11:43;4.82;;;2.10;;
46675;SDS011;32412;51.478;5.694;2022-11-21T00:14:08;12.05;;;2.72;;
46675;SDS011;32412;51.478;5.694;2022-11-21T00:16:34;8.73;;;2.90;;
46675;SDS011;32412;51.478;5.694;2022-11-21T00:18:59;13.00;;;3.22;;
46675;SDS011;32412;51.478;5.694;2022-11-21T00:21:25;15.23;;;4.03;;
46675;SDS011;32412;51.478;5.694;2022-11-21T00:23:51;9.13;;;2.85;;
46675;SDS011;32412;51.478;5.694;2022-11-21T00:26:16;5.93;;;2.90;;
46675;SDS011;32412;51.478;5.694;2022-11-21T00:28:42;13.68;;;3.50;;
46675;SDS011;32412;51.478;5.694;2022-11-21T00:31:16;14.88;;;3.83;;
46675;SDS011;32412;51.478;5.694;2022-11-21T00:33:46;9.32;;;3.20;;
46675;SDS011;32412;51.478;5.694;2022-11-21T00:36:12;15.63;;;3.28;;
46675;SDS011;32412;51.478;5.694;2022-11-21T00:38:37;11.38;;;4.18;;
46675;SDS011;32412;51.478;5.694;2022-11-21T00:41:03;11.45;;;5.20;;
46675;SDS011;32412;51.478;5.694;2022-11-21T00:43:29;18.42;;;5.45;;
46675;SDS011;32412;51.478;5.694;2022-11-21T00:45:55;14.90;;;5.45;;
46675;SDS011;32412;51.478;5.694;2022-11-21T00:48:22;21.27;;;5.18;;
46675;SDS011;32412;51.478;5.694;2022-11-21T00:50:48;11.18;;;4.45;;
46675;SDS011;32412;51.478;5.694;2022-11-21T00:53:14;16.63;;;5.82;;
46675;SDS011;32412;51.478;5.694;2022-11-21T00:55:40;14.60;;;4.60;;
46675;SDS011;32412;51.478;5.694;2022-11-21T00:58:06;10.55;;;4.35;;
46675;SDS011;32412;51.478;5.694;2022-11-21T01:00:31;19.20;;;6.57;;
46675;SDS011;32412;51.478;5.694;2022-11-21T01:02:57;17.13;;;6.32;;
46675;SDS011;32412;51.478;5.694;2022-11-21T01:05:23;19.42;;;7.78;;
46675;SDS011;32412;51.478;5.694;2022-11-21T01:07:48;23.45;;;7.65;;
46675;SDS011;32412;51.478;5.694;2022-11-21T01:10:14;28.85;;;9.63;;
46675;SDS011;32412;51.478;5.694;2022-11-21T01:12:39;24.13;;;11.38;;
46675;SDS011;32412;51.478;5.694;2022-11-21T01:15:05;32.72;;;13.63;;
46675;SDS011;32412;51.478;5.694;2022-11-21T01:17:32;33.83;;;14.05;;
46675;SDS011;32412;51.478;5.694;2022-11-21T01:19:57;32.28;;;13.98;;
46675;SDS011;32412;51.478;5.694;2022-11-21T01:22:23;41.42;;;16.25;;
46675;SDS011;32412;51.478;5.694;2022-11-21T01:24:49;41.13;;;16.33;;
46675;SDS011;32412;51.478;5.694;2022-11-21T01:27:14;40.40;;;17.08;;
46675;SDS011;32412;51.478;5.694;2022-11-21T01:29:40;35.83;;;17.38;;
46675;SDS011;32412;51.478;5.694;2022-11-21T01:32:06;39.33;;;17.40;;
46675;SDS011;32412;51.478;5.694;2022-11-21T01:34:31;51.55;;;18.75;;
46675;SDS011;32412;51.478;5.694;2022-11-21T01:36:57;47.90;;;19.05;;
46675;SDS011;32412;51.478;5.694;2022-11-21T01:39:23;55.90;;;20.13;;
46675;SDS011;32412;51.478;5.694;2022-11-21T01:41:49;52.22;;;20.65;;
46675;SDS011;32412;51.478;5.694;2022-11-21T01:44:18;50.30;;;20.13;;
46675;SDS011;32412;51.478;5.694;2022-11-21T01:46:46;53.58;;;21.98;;
46675;SDS011;32412;51.478;5.694;2022-11-21T01:49:15;56.38;;;22.10;;
46675;SDS011;32412;51.478;5.694;2022-11-21T01:51:58;63.85;;;23.30;;
46675;SDS011;32412;51.478;5.694;2022-11-21T01:57:14;63.08;;;23.42;;
46675;SDS011;32412;51.478;5.694;2022-11-21T01:59:49;53.40;;;22.20;;
46675;SDS011;32412;51.478;5.694;2022-11-21T02:02:24;55.67;;;22.70;;
46675;SDS011;32412;51.478;5.694;2022-11-21T02:04:54;59.00;;;23.85;;
46675;SDS011;32412;51.478;5.694;2022-11-21T02:07:22;57.97;;;22.45;;
46675;SDS011;32412;51.478;5.694;2022-11-21T02:09:51;60.92;;;24.15;;
46675;SDS011;32412;51.478;5.694;2022-11-21T02:14:55;59.10;;;22.88;;
46675;SDS011;32412;51.478;5.694;2022-11-21T02:17:22;65.03;;;25.17;;
46675;SDS011;32412;51.478;5.694;2022-11-21T02:19:59;68.95;;;25.90;;
46675;SDS011;32412;51.478;5.694;2022-11-21T02:25:23;58.15;;;24.02;;
46675;SDS011;32412;51.478;5.694;2022-11-21T02:27:53;67.65;;;23.98;;
46675;SDS011;32412;51.478;5.694;2022-11-21T02:30:23;64.07;;;25.27;;
46675;SDS011;32412;51.478;5.694;2022-11-21T02:32:51;73.25;;;26.63;;
46675;SDS011;32412;51.478;5.694;2022-11-21T02:35:18;73.57;;;26.10;;
46675;SDS011;32412;51.478;5.694;2022-11-21T02:37:44;70.72;;;26.20;;
46675;SDS011;32412;51.478;5.694;2022-11-21T02:40:15;78.70;;;27.80;;
46675;SDS011;32412;51.478;5.694;2022-11-21T02:42:46;84.13;;;29.08;;
46675;SDS011;32412;51.478;5.694;2022-11-21T02:45:29;70.03;;;26.65;;
46675;SDS011;32412;51.478;5.694;2022-11-21T02:48:06;79.50;;;26.88;;
46675;SDS011;32412;51.478;5.694;2022-11-21T02:50:39;91.53;;;28.10;;
46675;SDS011;32412;51.478;5.694;2022-11-21T02:53:07;71.55;;;26.27;;
46675;SDS011;32412;51.478;5.694;2022-11-21T02:55:41;67.85;;;26.90;;
46675;SDS011;32412;51.478;5.694;2022-11-21T02:58:07;71.90;;;27.38;;
46675;SDS011;32412;51.478;5.694;2022-11-21T03:00:34;73.10;;;26.85;;
46675;SDS011;32412;51.478;5.694;2022-11-21T03:03:01;70.05;;;25.63;;
46675;SDS011;32412;51.478;5.694;2022-11-21T03:05:27;66.45;;;27.35;;
46675;SDS011;32412;51.478;5.694;2022-11-21T03:07:53;73.82;;;27.63;;
46675;SDS011;32412;51.478;5.694;2022-11-21T03:10:19;76.03;;;27.73;;
46675;SDS011;32412;51.478;5.694;2022-11-21T03:12:44;83.63;;;27.65;;
46675;SDS011;32412;51.478;5.694;2022-11-21T03:15:11;93.18;;;28.88;;
46675;SDS011;32412;51.478;5.694;2022-11-21T03:17:38;78.32;;;27.45;;
46675;SDS011;32412;51.478;5.694;2022-11-21T03:20:05;83.25;;;28.02;;
46675;SDS011;32412;51.478;5.694;2022-11-21T03:22:31;79.70;;;26.75;;
46675;SDS011;32412;51.478;5.694;2022-11-21T03:24:57;79.22;;;28.08;;
46675;SDS011;32412;51.478;5.694;2022-11-21T03:27:22;77.85;;;27.23;;
46675;SDS011;32412;51.478;5.694;2022-11-21T03:29:48;82.90;;;26.60;;
46675;SDS011;32412;51.478;5.694;2022-11-21T03:32:14;78.68;;;28.08;;
46675;SDS011;32412;51.478;5.694;2022-11-21T03:34:40;88.57;;;28.02;;
46675;SDS011;32412;51.478;5.694;2022-11-21T03:37:05;81.28;;;26.08;;
46675;SDS011;32412;51.478;5.694;2022-11-21T03:39:31;91.07;;;27.50;;
46675;SDS011;32412;51.478;5.694;2022-11-21T03:41:57;78.32;;;27.92;;
46675;SDS011;32412;51.478;5.694;2022-11-21T03:44:23;72.95;;;27.15;;
46675;SDS011;32412;51.478;5.694;2022-11-21T03:46:48;77.45;;;27.58;;
46675;SDS011;32412;51.478;5.694;2022-11-21T03:49:14;72.60;;;26.95;;
46675;SDS011;32412;51.478;5.694;2022-11-21T03:51:41;81.75;;;26.17;;
46675;SDS011;32412;51.478;5.694;2022-11-21T03:54:08;70.35;;;25.48;;
46675;SDS011;32412;51.478;5.694;2022-11-21T03:56:34;81.03;;;28.63;;
46675;SDS011;32412;51.478;5.694;2022-11-21T03:59:00;79.13;;;27.83;;
46675;SDS011;32412;51.478;5.694;2022-11-21T04:01:26;75.78;;;27.40;;
46675;SDS011;32412;51.478;5.694;2022-11-21T04:03:52;72.75;;;26.65;;
46675;SDS011;32412;51.478;5.694;2022-11-21T04:06:19;71.15;;;25.85;;
46675;SDS011;32412;51.478;5.694;2022-11-21T04:08:46;82.35;;;26.75;;
46675;SDS011;32412;51.478;5.694;2022-11-21T04:11:13;88.75;;;27.30;;
46675;SDS011;32412;51.478;5.694;2022-11-21T04:13:39;90.07;;;27.90;;
46675;SDS011;32412;51.478;5.694;2022-11-21T04:16:05;75.60;;;27.25;;
46675;SDS011;32412;51.478;5.694;2022-11-21T04:18:30;75.28;;;26.45;;
46675;SDS011;32412;51.478;5.694;2022-11-21T04:20:58;80.10;;;26.63;;
46675;SDS011;32412;51.478;5.694;2022-11-21T04:23:25;84.30;;;26.02;;
46675;SDS011;32412;51.478;5.694;2022-11-21T04:25:50;81.72;;;26.15;;
46675;SDS011;32412;51.478;5.694;2022-11-21T04:28:16;92.25;;;27.52;;
46675;SDS011;32412;51.478;5.694;2022-11-21T04:30:42;80.40;;;27.35;;
46675;SDS011;32412;51.478;5.694;2022-11-21T04:33:08;76.53;;;26.67;;
46675;SDS011;32412;51.478;5.694;2022-11-21T04:35:35;83.25;;;26.38;;
46675;SDS011;32412;51.478;5.694;2022-11-21T04:38:01;71.75;;;26.20;;
46675;SDS011;32412;51.478;5.694;2022-11-21T04:40:26;75.45;;;26.73;;
46675;SDS011;32412;51.478;5.694;2022-11-21T04:42:52;94.60;;;26.15;;
46675;SDS011;32412;51.478;5.694;2022-11-21T04:45:18;83.25;;;27.20;;
46675;SDS011;32412;51.478;5.694;2022-11-21T04:47:44;75.15;;;26.60;;
46675;SDS011;32412;51.478;5.694;2022-11-21T04:50:12;89.47;;;26.88;;
46675;SDS011;32412;51.478;5.694;2022-11-21T04:52:39;78.05;;;25.40;;
46675;SDS011;32412;51.478;5.694;2022-11-21T04:55:05;87.47;;;27.13;;
46675;SDS011;32412;51.478;5.694;2022-11-21T04:57:32;97.63;;;28.13;;
46675;SDS011;32412;51.478;5.694;2022-11-21T04:59:58;79.25;;;26.88;;
46675;SDS011;32412;51.478;5.694;2022-11-21T05:02:23;104.13;;;28.25;;
46675;SDS011;32412;51.478;5.694;2022-11-21T05:04:49;85.05;;;27.60;;
46675;SDS011;32412;51.478;5.694;2022-11-21T05:07:15;86.10;;;27.60;;
46675;SDS011;32412;51.478;5.694;2022-11-21T05:09:41;116.38;;;28.77;;
46675;SDS011;32412;51.478;5.694;2022-11-21T05:12:08;98.07;;;28.15;;
46675;SDS011;32412;51.478;5.694;2022-11-21T05:14:53;84.30;;;26.80;;
46675;SDS011;32412;51.478;5.694;2022-11-21T05:17:19;117.78;;;29.80;;
46675;SDS011;32412;51.478;5.694;2022-11-21T05:19:44;144.10;;;28.35;;
46675;SDS011;32412;51.478;5.694;2022-11-21T05:22:10;114.28;;;29.08;;
46675;SDS011;32412;51.478;5.694;2022-11-21T05:24:36;104.72;;;29.00;;
46675;SDS011;32412;51.478;5.694;2022-11-21T05:27:02;114.72;;;29.63;;
46675;SDS011;32412;51.478;5.694;2022-11-21T05:29:28;145.93;;;31.55;;
46675;SDS011;32412;51.478;5.694;2022-11-21T05:31:53;133.25;;;30.40;;
46675;SDS011;32412;51.478;5.694;2022-11-21T05:34:19;104.47;;;30.33;;
46675;SDS011;32412;51.478;5.694;2022-11-21T05:36:45;103.93;;;30.33;;
46675;SDS011;32412;51.478;5.694;2022-11-21T05:39:10;90.25;;;29.60;;
46675;SDS011;32412;51.478;5.694;2022-11-21T05:41:36;125.05;;;30.50;;
46675;SDS011;32412;51.478;5.694;2022-11-21T05:44:02;129.23;;;31.55;;
46675;SDS011;32412;51.478;5.694;2022-11-21T05:46:27;95.55;;;29.98;;
46675;SDS011;32412;51.478;5.694;2022-11-21T05:48:53;119.63;;;31.27;;
46675;SDS011;32412;51.478;5.694;2022-11-21T05:51:19;100.40;;;28.95;;
46675;SDS011;32412;51.478;5.694;2022-11-21T05:53:46;102.63;;;29.73;;
46675;SDS011;32412;51.478;5.694;2022-11-21T05:56:13;93.55;;;28.67;;
46675;SDS011;32412;51.478;5.694;2022-11-21T05:58:40;93.55;;;28.85;;
46675;SDS011;32412;51.478;5.694;2022-11-21T06:01:07;92.05;;;28.48;;
46675;SDS011;32412;51.478;5.694;2022-11-21T06:03:34;102.57;;;29.55;;
46675;SDS011;32412;51.478;5.694;2022-11-21T06:08:34;85.07;;;26.63;;
46675;SDS011;32412;51.478;5.694;2022-11-21T06:11:05;86.03;;;27.38;;
46675;SDS011;32412;51.478;5.694;2022-11-21T06:13:32;91.15;;;26.55;;
46675;SDS011;32412;51.478;5.694;2022-11-21T06:18:26;81.82;;;25.02;;
46675;SDS011;32412;51.478;5.694;2022-11-21T06:20:53;76.93;;;25.08;;
46675;SDS011;32412;51.478;5.694;2022-11-21T06:23:19;91.00;;;26.40;;
46675;SDS011;32412;51.478;5.694;2022-11-21T06:25:45;68.43;;;24.02;;
46675;SDS011;32412;51.478;5.694;2022-11-21T06:28:11;69.10;;;23.13;;
46675;SDS011;32412;51.478;5.694;2022-11-21T06:30:37;62.83;;;21.85;;
46675;SDS011;32412;51.478;5.694;2022-11-21T06:33:03;53.97;;;20.60;;
46675;SDS011;32412;51.478;5.694;2022-11-21T06:35:30;57.42;;;20.85;;
46675;SDS011;32412;51.478;5.694;2022-11-21T06:37:56;54.33;;;20.42;;
46675;SDS011;32412;51.478;5.694;2022-11-21T06:40:22;48.45;;;20.73;;
46675;SDS011;32412;51.478;5.694;2022-11-21T06:42:50;59.47;;;21.25;;
46675;SDS011;32412;51.478;5.694;2022-11-21T06:45:16;48.80;;;19.35;;
46675;SDS011;32412;51.478;5.694;2022-11-21T06:47:42;50.97;;;18.80;;
46675;SDS011;32412;51.478;5.694;2022-11-21T06:50:07;45.42;;;17.40;;
46675;SDS011;32412;51.478;5.694;2022-11-21T06:52:34;45.00;;;17.73;;
46675;SDS011;32412;51.478;5.694;2022-11-21T06:54:59;42.80;;;18.17;;
46675;SDS011;32412;51.478;5.694;2022-11-21T06:57:27;45.95;;;19.40;;
46675;SDS011;32412;51.478;5.694;2022-11-21T06:59:53;48.05;;;19.08;;
46675;SDS011;32412;51.478;5.694;2022-11-21T07:02:19;47.58;;;18.35;;
46675;SDS011;32412;51.478;5.694;2022-11-21T07:04:44;45.25;;;17.60;;
46675;SDS011;32412;51.478;5.694;2022-11-21T07:07:10;47.03;;;18.52;;
46675;SDS011;32412;51.478;5.694;2022-11-21T07:09:36;42.63;;;18.40;;
46675;SDS011;32412;51.478;5.694;2022-11-21T07:12:01;40.45;;;17.17;;
46675;SDS011;32412;51.478;5.694;2022-11-21T07:14:45;42.60;;;17.67;;
46675;SDS011;32412;51.478;5.694;2022-11-21T07:17:11;37.92;;;18.10;;
46675;SDS011;32412;51.478;5.694;2022-11-21T07:19:38;39.75;;;18.05;;
46675;SDS011;32412;51.478;5.694;2022-11-21T07:22:04;46.38;;;18.10;;
46675;SDS011;32412;51.478;5.694;2022-11-21T07:24:31;44.90;;;18.17;;
46675;SDS011;32412;51.478;5.694;2022-11-21T07:26:56;49.03;;;18.63;;
46675;SDS011;32412;51.478;5.694;2022-11-21T07:29:22;43.20;;;18.17;;
46675;SDS011;32412;51.478;5.694;2022-11-21T07:31:48;42.08;;;18.17;;
46675;SDS011;32412;51.478;5.694;2022-11-21T07:34:13;38.30;;;17.70;;
46675;SDS011;32412;51.478;5.694;2022-11-21T07:36:39;46.40;;;19.20;;
46675;SDS011;32412;51.478;5.694;2022-11-21T07:39:04;41.40;;;18.00;;
46675;SDS011;32412;51.478;5.694;2022-11-21T07:41:30;47.55;;;18.27;;
46675;SDS011;32412;51.478;5.694;2022-11-21T07:43:56;44.22;;;18.45;;
46675;SDS011;32412;51.478;5.694;2022-11-21T07:46:22;42.85;;;18.05;;
46675;SDS011;32412;51.478;5.694;2022-11-21T07:48:48;45.10;;;18.23;;
46675;SDS011;32412;51.478;5.694;2022-11-21T07:51:14;37.80;;;18.02;;
46675;SDS011;32412;51.478;5.694;2022-11-21T07:53:40;41.13;;;18.25;;
46675;SDS011;32412;51.478;5.694;2022-11-21T07:56:05;42.97;;;18.52;;
46675;SDS011;32412;51.478;5.694;2022-11-21T07:58:33;41.47;;;18.27;;
46675;SDS011;32412;51.478;5.694;2022-11-21T08:01:03;40.00;;;17.30;;
46675;SDS011;32412;51.478;5.694;2022-11-21T08:03:30;37.63;;;16.55;;
46675;SDS011;32412;51.478;5.694;2022-11-21T08:05:56;35.28;;;16.00;;
46675;SDS011;32412;51.478;5.694;2022-11-21T08:08:27;42.20;;;16.50;;
46675;SDS011;32412;51.478;5.694;2022-11-21T08:10:53;32.70;;;15.15;;
46675;SDS011;32412;51.478;5.694;2022-11-21T08:13:19;34.45;;;15.13;;
46675;SDS011;32412;51.478;5.694;2022-11-21T08:15:44;34.70;;;14.73;;
46675;SDS011;32412;51.478;5.694;2022-11-21T08:18:10;30.95;;;15.13;;
46675;SDS011;32412;51.478;5.694;2022-11-21T08:20:38;33.05;;;15.27;;
46675;SDS011;32412;51.478;5.694;2022-11-21T08:23:04;30.13;;;14.73;;
46675;SDS011;32412;51.478;5.694;2022-11-21T08:25:30;26.50;;;13.20;;
46675;SDS011;32412;51.478;5.694;2022-11-21T08:27:57;30.83;;;12.38;;
46675;SDS011;32412;51.478;5.694;2022-11-21T08:30:23;27.10;;;13.23;;
46675;SDS011;32412;51.478;5.694;2022-11-21T08:32:49;24.95;;;12.23;;
46675;SDS011;32412;51.478;5.694;2022-11-21T08:35:15;34.33;;;12.32;;
46675;SDS011;32412;51.478;5.694;2022-11-21T08:37:40;28.52;;;12.25;;
46675;SDS011;32412;51.478;5.694;2022-11-21T08:40:06;25.08;;;12.27;;
46675;SDS011;32412;51.478;5.694;2022-11-21T08:42:32;25.48;;;12.05;;
46675;SDS011;32412;51.478;5.694;2022-11-21T08:44:58;27.25;;;11.65;;
46675;SDS011;32412;51.478;5.694;2022-11-21T08:47:23;21.35;;;11.80;;
46675;SDS011;32412;51.478;5.694;2022-11-21T08:49:49;26.00;;;11.32;;
46675;SDS011;32412;51.478;5.694;2022-11-21T08:52:15;21.98;;;11.85;;
46675;SDS011;32412;51.478;5.694;2022-11-21T08:54:41;30.73;;;12.10;;
46675;SDS011;32412;51.478;5.694;2022-11-21T08:57:08;27.50;;;12.45;;
46675;SDS011;32412;51.478;5.694;2022-11-21T08:59:34;25.55;;;12.38;;
46675;SDS011;32412;51.478;5.694;2022-11-21T09:04:57;23.02;;;11.55;;
46675;SDS011;32412;51.478;5.694;2022-11-21T09:07:23;24.40;;;12.57;;
46675;SDS011;32412;51.478;5.694;2022-11-21T09:09:49;27.17;;;13.25;;
46675;SDS011;32412;51.478;5.694;2022-11-21T09:12:15;26.65;;;11.55;;
46675;SDS011;32412;51.478;5.694;2022-11-21T09:14:41;26.58;;;10.88;;
46675;SDS011;32412;51.478;5.694;2022-11-21T09:17:24;27.10;;;11.18;;
46675;SDS011;32412;51.478;5.694;2022-11-21T09:20:09;20.58;;;9.93;;
46675;SDS011;32412;51.478;5.694;2022-11-21T09:22:34;16.60;;;8.77;;
46675;SDS011;32412;51.478;5.694;2022-11-21T09:25:00;16.92;;;8.55;;
46675;SDS011;32412;51.478;5.694;2022-11-21T09:27:26;12.68;;;8.20;;
46675;SDS011;32412;51.478;5.694;2022-11-21T09:29:52;18.00;;;6.63;;
46675;SDS011;32412;51.478;5.694;2022-11-21T09:32:18;11.88;;;5.78;;
46675;SDS011;32412;51.478;5.694;2022-11-21T09:34:43;14.80;;;6.63;;
46675;SDS011;32412;51.478;5.694;2022-11-21T09:37:09;13.82;;;5.25;;
46675;SDS011;32412;51.478;5.694;2022-11-21T09:39:35;10.55;;;5.10;;
46675;SDS011;32412;51.478;5.694;2022-11-21T09:42:05;13.95;;;5.20;;
46675;SDS011;32412;51.478;5.694;2022-11-21T09:47:36;14.05;;;4.40;;
46675;SDS011;32412;51.478;5.694;2022-11-21T09:57:53;8.10;;;3.80;;
46675;SDS011;32412;51.478;5.694;2022-11-21T10:00:23;5.13;;;3.25;;
46675;SDS011;32412;51.478;5.694;2022-11-21T10:02:49;10.57;;;3.67;;
46675;SDS011;32412;51.478;5.694;2022-11-21T10:05:16;9.48;;;3.50;;
46675;SDS011;32412;51.478;5.694;2022-11-21T10:08:04;5.60;;;3.45;;
46675;SDS011;32412;51.478;5.694;2022-11-21T10:10:56;9.57;;;3.20;;
46675;SDS011;32412;51.478;5.694;2022-11-21T10:13:37;7.03;;;2.97;;
46675;SDS011;32412;51.478;5.694;2022-11-21T10:19:17;6.85;;;2.95;;
46675;SDS011;32412;51.478;5.694;2022-11-21T10:29:49;9.27;;;3.25;;
46675;SDS011;32412;51.478;5.694;2022-11-21T10:32:25;6.43;;;2.97;;
46675;SDS011;32412;51.478;5.694;2022-11-21T10:34:56;8.60;;;2.63;;
46675;SDS011;32412;51.478;5.694;2022-11-21T10:39:57;9.05;;;2.92;;
46675;SDS011;32412;51.478;5.694;2022-11-21T10:42:35;8.77;;;2.50;;
46675;SDS011;32412;51.478;5.694;2022-11-21T10:45:12;7.07;;;2.50;;
46675;SDS011;32412;51.478;5.694;2022-11-21T10:47:42;4.03;;;2.50;;
46675;SDS011;32412;51.478;5.694;2022-11-21T10:52:37;8.60;;;2.97;;
46675;SDS011;32412;51.478;5.694;2022-11-21T10:55:13;12.10;;;3.13;;
46675;SDS011;32412;51.478;5.694;2022-11-21T10:57:44;8.82;;;3.08;;
46675;SDS011;32412;51.478;5.694;2022-11-21T11:02:41;7.60;;;2.65;;
46675;SDS011;32412;51.478;5.694;2022-11-21T11:05:27;8.27;;;2.75;;
46675;SDS011;32412;51.478;5.694;2022-11-21T11:08:03;7.72;;;2.58;;
46675;SDS011;32412;51.478;5.694;2022-11-21T11:10:30;6.80;;;2.60;;
46675;SDS011;32412;51.478;5.694;2022-11-21T11:12:57;4.97;;;2.20;;
46675;SDS011;32412;51.478;5.694;2022-11-21T11:18:45;6.78;;;2.47;;
46675;SDS011;32412;51.478;5.694;2022-11-21T11:21:19;9.18;;;2.40;;
46675;SDS011;32412;51.478;5.694;2022-11-21T11:23:50;7.93;;;2.67;;
46675;SDS011;32412;51.478;5.694;2022-11-21T11:26:27;6.32;;;2.08;;
46675;SDS011;32412;51.478;5.694;2022-11-21T11:29:08;10.73;;;2.30;;
46675;SDS011;32412;51.478;5.694;2022-11-21T11:32:00;11.10;;;2.83;;
46675;SDS011;32412;51.478;5.694;2022-11-21T11:37:12;7.65;;;2.58;;
46675;SDS011;32412;51.478;5.694;2022-11-21T11:40:07;4.85;;;2.30;;
46675;SDS011;32412;51.478;5.694;2022-11-21T11:46:08;6.70;;;2.03;;
46675;SDS011;32412;51.478;5.694;2022-11-21T11:49:24;11.45;;;2.45;;
46675;SDS011;32412;51.478;5.694;2022-11-21T11:52:27;8.55;;;2.05;;
46675;SDS011;32412;51.478;5.694;2022-11-21T11:54:59;5.30;;;2.25;;
46675;SDS011;32412;51.478;5.694;2022-11-21T11:57:29;7.75;;;2.60;;
46675;SDS011;32412;51.478;5.694;2022-11-21T12:00:03;9.18;;;2.20;;
46675;SDS011;32412;51.478;5.694;2022-11-21T12:02:40;7.70;;;2.05;;
46675;SDS011;32412;51.478;5.694;2022-11-21T12:05:25;5.00;;;1.80;;
46675;SDS011;32412;51.478;5.694;2022-11-21T12:08:02;4.60;;;2.00;;
46675;SDS011;32412;51.478;5.694;2022-11-21T12:10:50;4.78;;;1.90;;
46675;SDS011;32412;51.478;5.694;2022-11-21T12:13:39;6.53;;;1.75;;
46675;SDS011;32412;51.478;5.694;2022-11-21T12:16:08;6.50;;;2.25;;
46675;SDS011;32412;51.478;5.694;2022-11-21T12:18:47;3.78;;;2.10;;
46675;SDS011;32412;51.478;5.694;2022-11-21T12:21:19;5.75;;;1.95;;
46675;SDS011;32412;51.478;5.694;2022-11-21T12:23:49;5.32;;;1.92;;
46675;SDS011;32412;51.478;5.694;2022-11-21T12:28:49;8.35;;;2.33;;
46675;SDS011;32412;51.478;5.694;2022-11-21T12:37:02;8.07;;;2.60;;
46675;SDS011;32412;51.478;5.694;2022-11-21T12:45:37;4.78;;;2.00;;
46675;SDS011;32412;51.478;5.694;2022-11-21T12:56:48;8.65;;;1.92;;
46675;SDS011;32412;51.478;5.694;2022-11-21T12:59:21;5.57;;;1.88;;
46675;SDS011;32412;51.478;5.694;2022-11-21T13:04:36;3.05;;;1.52;;
46675;SDS011;32412;51.478;5.694;2022-11-21T13:07:05;5.40;;;1.73;;
46675;SDS011;32412;51.478;5.694;2022-11-21T13:09:35;4.90;;;1.63;;
46675;SDS011;32412;51.478;5.694;2022-11-21T13:12:06;3.70;;;1.48;;
46675;SDS011;32412;51.478;5.694;2022-11-21T13:14:56;10.07;;;2.17;;
46675;SDS011;32412;51.478;5.694;2022-11-21T13:23:02;7.22;;;2.15;;
46675;SDS011;32412;51.478;5.694;2022-11-21T13:36:05;3.35;;;1.70;;
46675;SDS011;32412;51.478;5.694;2022-11-21T13:39:23;8.20;;;2.00;;
46675;SDS011;32412;51.478;5.694;2022-11-21T13:44:38;11.80;;;2.35;;
46675;SDS011;32412;51.478;5.694;2022-11-21T13:47:10;17.25;;;2.35;;
46675;SDS011;32412;51.478;5.694;2022-11-21T14:06:27;7.18;;;2.85;;
46675;SDS011;32412;51.478;5.694;2022-11-21T14:09:03;4.40;;;2.30;;
46675;SDS011;32412;51.478;5.694;2022-11-21T14:11:49;9.52;;;2.40;;
46675;SDS011;32412;51.478;5.694;2022-11-21T14:17:08;9.73;;;3.28;;
46675;SDS011;32412;51.478;5.694;2022-11-21T14:19:57;5.63;;;2.30;;
46675;SDS011;32412;51.478;5.694;2022-11-21T14:28:05;13.98;;;6.13;;
46675;SDS011;32412;51.478;5.694;2022-11-21T14:30:37;7.90;;;2.10;;
46675;SDS011;32412;51.478;5.694;2022-11-21T14:33:23;7.13;;;2.05;;
46675;SDS011;32412;51.478;5.694;2022-11-21T14:35:58;4.72;;;1.70;;
46675;SDS011;32412;51.478;5.694;2022-11-21T14:38:30;5.83;;;2.07;;
46675;SDS011;32412;51.478;5.694;2022-11-21T14:46:24;4.60;;;1.77;;
46675;SDS011;32412;51.478;5.694;2022-11-21T14:48:51;7.15;;;2.05;;
46675;SDS011;32412;51.478;5.694;2022-11-21T14:51:18;6.97;;;1.60;;
46675;SDS011;32412;51.478;5.694;2022-11-21T14:53:46;4.85;;;2.00;;
46675;SDS011;32412;51.478;5.694;2022-11-21T14:56:23;6.00;;;2.30;;
46675;SDS011;32412;51.478;5.694;2022-11-21T14:58:52;14.82;;;8.75;;
46675;SDS011;32412;51.478;5.694;2022-11-21T15:01:20;4.05;;;1.80;;
46675;SDS011;32412;51.478;5.694;2022-11-21T15:03:53;5.95;;;2.08;;
46675;SDS011;32412;51.478;5.694;2022-11-21T15:06:23;6.70;;;1.77;;
46675;SDS011;32412;51.478;5.694;2022-11-21T15:08:50;4.30;;;1.73;;
46675;SDS011;32412;51.478;5.694;2022-11-21T15:11:18;8.20;;;2.10;;
46675;SDS011;32412;51.478;5.694;2022-11-21T15:13:49;6.28;;;2.30;;
46675;SDS011;32412;51.478;5.694;2022-11-21T15:16:20;10.48;;;1.98;;
46675;SDS011;32412;51.478;5.694;2022-11-21T15:18:47;7.65;;;1.85;;
46675;SDS011;32412;51.478;5.694;2022-11-21T15:21:13;7.70;;;1.80;;
46675;SDS011;32412;51.478;5.694;2022-11-21T15:23:40;4.10;;;1.80;;
46675;SDS011;32412;51.478;5.694;2022-11-21T15:26:29;5.13;;;1.95;;
46675;SDS011;32412;51.478;5.694;2022-11-21T15:28:56;54.80;;;24.27;;
46675;SDS011;32412;51.478;5.694;2022-11-21T15:31:24;6.18;;;2.10;;
46675;SDS011;32412;51.478;5.694;2022-11-21T15:36:26;6.93;;;1.73;;
46675;SDS011;32412;51.478;5.694;2022-11-21T15:38:54;5.88;;;1.83;;
46675;SDS011;32412;51.478;5.694;2022-11-21T15:41:30;6.55;;;2.30;;
46675;SDS011;32412;51.478;5.694;2022-11-21T15:46:36;9.15;;;1.90;;
46675;SDS011;32412;51.478;5.694;2022-11-21T15:49:06;8.20;;;1.90;;
46675;SDS011;32412;51.478;5.694;2022-11-21T15:54:05;6.47;;;2.53;;
46675;SDS011;32412;51.478;5.694;2022-11-21T15:56:34;6.75;;;1.90;;
46675;SDS011;32412;51.478;5.694;2022-11-21T15:58:59;6.18;;;1.85;;
46675;SDS011;32412;51.478;5.694;2022-11-21T16:01:26;7.50;;;2.30;;
46675;SDS011;32412;51.478;5.694;2022-11-21T16:03:57;4.68;;;1.98;;
46675;SDS011;32412;51.478;5.694;2022-11-21T16:06:25;5.00;;;1.65;;
46675;SDS011;32412;51.478;5.694;2022-11-21T16:08:51;7.78;;;1.90;;
46675;SDS011;32412;51.478;5.694;2022-11-21T16:13:51;6.15;;;1.70;;
46675;SDS011;32412;51.478;5.694;2022-11-21T16:16:32;1.98;;;1.40;;
46675;SDS011;32412;51.478;5.694;2022-11-21T16:19:00;7.28;;;1.80;;
46675;SDS011;32412;51.478;5.694;2022-11-21T16:21:26;6.18;;;1.52;;
46675;SDS011;32412;51.478;5.694;2022-11-21T16:23:52;4.80;;;1.70;;
46675;SDS011;32412;51.478;5.694;2022-11-21T16:26:18;3.38;;;1.65;;
46675;SDS011;32412;51.478;5.694;2022-11-21T16:28:44;3.42;;;1.50;;
46675;SDS011;32412;51.478;5.694;2022-11-21T16:31:16;4.10;;;1.77;;
46675;SDS011;32412;51.478;5.694;2022-11-21T16:33:43;7.78;;;1.88;;
46675;SDS011;32412;51.478;5.694;2022-11-21T16:36:09;6.50;;;1.88;;
46675;SDS011;32412;51.478;5.694;2022-11-21T16:38:34;6.22;;;1.95;;
46675;SDS011;32412;51.478;5.694;2022-11-21T16:41:01;5.63;;;2.03;;
46675;SDS011;32412;51.478;5.694;2022-11-21T16:43:29;9.60;;;4.82;;
46675;SDS011;32412;51.478;5.694;2022-11-21T16:45:55;4.63;;;2.47;;
46675;SDS011;32412;51.478;5.694;2022-11-21T16:48:30;8.65;;;2.92;;
46675;SDS011;32412;51.478;5.694;2022-11-21T16:51:01;5.38;;;2.55;;
46675;SDS011;32412;51.478;5.694;2022-11-21T16:53:37;8.13;;;2.85;;
46675;SDS011;32412;51.478;5.694;2022-11-21T16:56:04;12.98;;;2.78;;
46675;SDS011;32412;51.478;5.694;2022-11-21T16:58:31;7.70;;;2.55;;
46675;SDS011;32412;51.478;5.694;2022-11-21T17:00:56;6.13;;;2.70;;
46675;SDS011;32412;51.478;5.694;2022-11-21T17:03:22;7.13;;;2.45;;